Blumenthal, Texas
Current Conditions -  °F | °C
As of 2:15 PM on Monday 26 Jan 2015 (Local Time) from KT82 Reporting Station
Clear Clear  
Wind Chill: 68°   Ceiling: Unl
Heat Index: 68°   Visibility: 10mi
Dew Point: 30°   Wind: 10mph
Humidity: 24%   Direction: 270°W
Pressure: 30.21"   Gusts: 16mph
Location:  30.3069°N, 98.8978°W
Report Text: KT82 262015Z AUTO 27009G14KT 10SM CLR 20/M01 A3021 RMK AO2 T02001011
Loading
Personal Weather Stations






























Interactive Weather Map New forecast layout! Learn more

10-Day Weather Forecast

Advertisements
Track Severe Weather on mobile